createdAt,value
2023-06-05T00:01:56.285Z,4.10
2023-06-05T00:04:24.792Z,3.72
2023-06-05T00:06:54.346Z,3.85
2023-06-05T00:09:21.390Z,3.80
2023-06-05T00:11:48.453Z,3.83
2023-06-05T00:14:16.124Z,3.42
2023-06-05T00:16:42.937Z,3.90
2023-06-05T00:19:10.128Z,3.72
2023-06-05T00:21:37.396Z,3.60
2023-06-05T00:24:04.480Z,3.78
2023-06-05T00:26:31.639Z,4.18
2023-06-05T00:28:58.399Z,4.20
2023-06-05T00:31:25.312Z,4.88
2023-06-05T00:33:52.799Z,4.10
2023-06-05T00:36:23.515Z,4.47
2023-06-05T00:38:51.386Z,4.40
2023-06-05T00:41:18.696Z,4.20
2023-06-05T00:43:45.545Z,4.18
2023-06-05T00:46:13.678Z,4.35
2023-06-05T00:48:41.819Z,4.90
2023-06-05T00:51:11.293Z,4.22
2023-06-05T00:53:40.193Z,4.90
2023-06-05T00:56:07.470Z,4.88
2023-06-05T00:58:34.241Z,4.68
2023-06-05T01:01:04.864Z,4.80
2023-06-05T01:03:34.972Z,4.57
2023-06-05T01:06:04.605Z,4.70
2023-06-05T01:08:42.715Z,4.68
2023-06-05T01:11:41.644Z,4.97
2023-06-05T01:14:28.971Z,5.13
2023-06-05T01:16:58.056Z,4.78
2023-06-05T01:19:30.145Z,4.47
2023-06-05T01:21:56.951Z,4.88
2023-06-05T01:24:24.107Z,4.88
2023-06-05T01:27:02.350Z,5.32
2023-06-05T01:29:38.658Z,4.95
2023-06-05T01:32:20.143Z,5.50
2023-06-05T01:34:49.872Z,5.30
2023-06-05T01:37:20.359Z,5.50
2023-06-05T01:39:49.328Z,5.78
2023-06-05T01:42:16.796Z,6.20
2023-06-05T01:44:44.442Z,6.18
2023-06-05T01:47:11.907Z,6.20
2023-06-05T01:49:38.674Z,6.53
2023-06-05T01:52:06.810Z,6.82
2023-06-05T01:54:35.186Z,6.60
2023-06-05T01:57:02.045Z,6.50
2023-06-05T01:59:28.847Z,6.15
2023-06-05T02:01:55.831Z,7.18
2023-06-05T02:04:23.000Z,6.43
2023-06-05T02:06:50.214Z,6.20
2023-06-05T02:09:17.212Z,6.82
2023-06-05T02:11:44.050Z,7.03
2023-06-05T02:14:14.042Z,6.82
2023-06-05T02:16:42.292Z,6.65
2023-06-05T02:19:09.542Z,7.15
2023-06-05T02:21:37.074Z,7.10
2023-06-05T02:24:04.465Z,6.68
2023-06-05T02:26:31.300Z,6.65
2023-06-05T02:28:59.630Z,6.82
2023-06-05T02:31:27.156Z,6.72
2023-06-05T02:33:56.225Z,6.85
2023-06-05T02:36:26.124Z,6.88
2023-06-05T02:38:53.326Z,7.07
2023-06-05T02:41:20.744Z,6.95
2023-06-05T02:43:47.534Z,7.15
2023-06-05T02:46:14.349Z,8.05
2023-06-05T02:48:41.239Z,7.93
2023-06-05T02:51:08.399Z,8.00
2023-06-05T02:53:35.813Z,8.30
2023-06-05T02:56:02.722Z,7.80
2023-06-05T02:58:29.789Z,7.43
2023-06-05T03:01:03.087Z,7.63
2023-06-05T03:03:33.959Z,7.15
2023-06-05T03:06:10.918Z,7.72
2023-06-05T03:08:38.378Z,7.63
2023-06-05T03:11:06.497Z,8.35
2023-06-05T03:13:36.398Z,8.02
2023-06-05T03:16:03.602Z,8.38
2023-06-05T03:18:30.652Z,8.27
2023-06-05T03:20:57.792Z,8.27
2023-06-05T03:23:25.586Z,8.52
2023-06-05T03:25:52.561Z,9.07
2023-06-05T03:28:19.794Z,8.48
2023-06-05T03:30:47.003Z,9.48
2023-06-05T03:33:14.892Z,8.25
2023-06-05T03:35:43.631Z,9.27
2023-06-05T03:38:10.908Z,8.93
2023-06-05T03:40:40.375Z,8.73
2023-06-05T03:43:08.238Z,9.23
2023-06-05T03:45:39.378Z,9.88
2023-06-05T03:48:06.879Z,8.77
2023-06-05T03:50:38.368Z,8.45
2023-06-05T03:53:05.860Z,10.23
2023-06-05T03:55:42.431Z,9.18
2023-06-05T03:58:11.165Z,9.45
2023-06-05T04:00:37.989Z,8.90
2023-06-05T04:03:05.510Z,9.20
2023-06-05T04:05:32.398Z,8.90
2023-06-05T04:07:59.174Z,9.68
2023-06-05T04:10:26.197Z,9.93
2023-06-05T04:12:52.933Z,9.55
2023-06-05T04:15:19.675Z,9.35
2023-06-05T04:17:46.593Z,10.02
2023-06-05T04:20:16.474Z,10.85
2023-06-05T04:22:44.228Z,11.05
2023-06-05T04:25:14.203Z,11.60
2023-06-05T04:27:42.837Z,11.10
2023-06-05T04:30:11.691Z,12.20
2023-06-05T04:32:39.946Z,11.48
2023-06-05T04:35:07.771Z,11.63
2023-06-05T04:37:34.813Z,12.57
2023-06-05T04:40:07.079Z,11.93
2023-06-05T04:42:34.487Z,11.35
2023-06-05T04:45:05.640Z,11.38
2023-06-05T04:47:33.255Z,11.95
2023-06-05T04:50:01.028Z,12.65
2023-06-05T04:52:30.408Z,12.70
2023-06-05T04:54:58.464Z,13.95
2023-06-05T04:57:27.191Z,12.80
2023-06-05T04:59:54.104Z,12.55
2023-06-05T05:02:21.503Z,12.13
2023-06-05T05:04:48.578Z,9.75
2023-06-05T05:07:17.311Z,8.57
2023-06-05T05:09:45.192Z,8.55
2023-06-05T05:12:12.687Z,9.27
2023-06-05T05:14:41.266Z,10.02
2023-06-05T05:17:08.091Z,10.00
2023-06-05T05:19:34.889Z,10.98
2023-06-05T05:22:01.739Z,11.73
2023-06-05T05:24:28.543Z,12.65
2023-06-05T05:26:56.103Z,12.20
2023-06-05T05:29:22.910Z,13.93
2023-06-05T05:31:49.727Z,15.05
2023-06-05T05:34:16.625Z,14.43
2023-06-05T05:36:43.477Z,13.40
2023-06-05T05:39:11.138Z,11.23
2023-06-05T05:41:37.908Z,10.98
2023-06-05T05:44:04.691Z,9.52
2023-06-05T05:46:31.487Z,8.65
2023-06-05T05:48:58.333Z,8.75
2023-06-05T05:51:25.091Z,8.50
2023-06-05T05:53:52.321Z,8.32
2023-06-05T05:56:20.493Z,8.95
2023-06-05T05:58:48.255Z,8.13
2023-06-05T06:01:15.074Z,8.00
2023-06-05T06:03:41.977Z,7.57
2023-06-05T06:06:08.886Z,8.02
2023-06-05T06:08:36.332Z,7.53
2023-06-05T06:11:07.564Z,7.85
2023-06-05T06:13:35.697Z,8.30
2023-06-05T06:16:04.059Z,7.88
2023-06-05T06:18:31.528Z,7.95
2023-06-05T06:20:59.374Z,8.88
2023-06-05T06:23:26.152Z,9.23
2023-06-05T06:25:52.989Z,10.20
2023-06-05T06:28:20.677Z,8.93
2023-06-05T06:30:48.083Z,10.13
2023-06-05T06:33:15.040Z,9.55
2023-06-05T06:35:41.835Z,9.10
2023-06-05T06:38:08.639Z,9.63
2023-06-05T06:40:35.494Z,9.48
2023-06-05T06:43:02.262Z,8.60
2023-06-05T06:45:29.355Z,9.25
2023-06-05T06:48:07.213Z,8.68
2023-06-05T06:50:35.322Z,9.80
2023-06-05T06:53:02.416Z,8.70
2023-06-05T06:55:29.297Z,9.70
2023-06-05T06:57:56.216Z,9.48
2023-06-05T07:00:24.318Z,9.55
2023-06-05T07:02:51.353Z,9.00
2023-06-05T07:05:20.913Z,9.75
2023-06-05T07:07:48.179Z,8.38
2023-06-05T07:10:15.141Z,9.07
2023-06-05T07:12:41.860Z,7.82
2023-06-05T07:15:08.851Z,9.20
2023-06-05T07:17:35.790Z,9.55
2023-06-05T07:20:03.640Z,8.93
2023-06-05T07:22:31.522Z,8.85
2023-06-05T07:24:58.378Z,8.48
2023-06-05T07:27:25.137Z,8.93
2023-06-05T07:29:54.313Z,9.25
2023-06-05T07:32:21.736Z,8.93
2023-06-05T07:34:49.919Z,8.48
2023-06-05T07:37:16.838Z,7.68
2023-06-05T07:39:43.874Z,7.38
2023-06-05T07:42:11.021Z,8.30
2023-06-05T07:44:37.814Z,7.75
2023-06-05T07:47:04.775Z,8.60
2023-06-05T07:49:34.993Z,8.27
2023-06-05T07:52:02.193Z,9.70
2023-06-05T07:54:29.031Z,9.55
2023-06-05T07:56:58.406Z,9.75
2023-06-05T07:59:29.021Z,10.98
2023-06-05T08:02:02.206Z,10.40
2023-06-05T08:04:29.239Z,11.07
2023-06-05T08:06:56.506Z,12.38
2023-06-05T08:09:23.638Z,12.57
2023-06-05T08:11:50.830Z,11.73
2023-06-05T08:14:17.598Z,12.90
2023-06-05T08:16:44.822Z,13.05
2023-06-05T08:19:11.760Z,13.18
2023-06-05T08:21:38.701Z,13.63
2023-06-05T08:24:05.917Z,13.07
2023-06-05T08:26:32.798Z,13.43
2023-06-05T08:29:01.139Z,12.73
2023-06-05T08:31:27.999Z,13.85
2023-06-05T08:33:54.997Z,14.23
2023-06-05T08:36:22.275Z,14.43
2023-06-05T08:38:49.370Z,14.30
2023-06-05T08:41:17.508Z,14.15
2023-06-05T08:43:45.709Z,13.13
2023-06-05T08:46:13.868Z,13.50
2023-06-05T08:48:46.134Z,13.38
2023-06-05T08:51:17.933Z,12.90
2023-06-05T08:53:52.798Z,12.55
2023-06-05T08:56:20.038Z,13.75
2023-06-05T08:58:49.470Z,13.05
2023-06-05T09:01:17.426Z,12.05
2023-06-05T09:03:44.491Z,12.77
2023-06-05T09:06:13.947Z,12.05
2023-06-05T09:08:41.827Z,12.55
2023-06-05T09:11:26.636Z,11.85
2023-06-05T09:13:55.534Z,12.38
2023-06-05T09:16:23.637Z,13.00
2023-06-05T09:18:57.888Z,12.38
2023-06-05T09:21:35.796Z,11.77
2023-06-05T09:24:16.327Z,11.50
2023-06-05T09:27:02.403Z,9.88
2023-06-05T09:29:33.457Z,11.02
2023-06-05T09:32:07.827Z,10.00
2023-06-05T09:34:39.408Z,10.32
2023-06-05T09:37:11.127Z,10.82
2023-06-05T09:39:41.206Z,10.43
2023-06-05T09:42:08.143Z,10.63
2023-06-05T09:44:36.714Z,10.52
2023-06-05T09:47:14.712Z,9.27
2023-06-05T09:49:41.807Z,10.00
2023-06-05T09:52:11.382Z,8.27
2023-06-05T09:54:40.232Z,10.20
2023-06-05T09:57:10.691Z,9.70
2023-06-05T09:59:52.671Z,9.32
2023-06-05T10:02:21.768Z,9.60
2023-06-05T10:04:53.467Z,9.70
2023-06-05T10:07:20.704Z,9.70
2023-06-05T10:09:51.279Z,10.48
2023-06-05T10:12:19.557Z,9.35
2023-06-05T10:14:46.566Z,9.57
2023-06-05T10:17:14.311Z,9.55
2023-06-05T10:19:45.080Z,9.10
2023-06-05T10:22:13.010Z,8.05
2023-06-05T10:25:02.898Z,9.00
2023-06-05T10:27:58.158Z,9.20
2023-06-05T10:30:43.663Z,7.53
2023-06-05T10:33:49.011Z,8.70
2023-06-05T10:36:41.424Z,7.90
2023-06-05T10:39:13.330Z,8.15
2023-06-05T10:41:40.351Z,7.57
2023-06-05T10:44:07.219Z,7.32
2023-06-05T10:46:35.738Z,7.03
2023-06-05T10:49:08.559Z,7.75
2023-06-05T10:51:50.073Z,6.18
2023-06-05T10:54:39.685Z,6.68
2023-06-05T10:57:08.238Z,6.32
2023-06-05T10:59:37.574Z,6.25
2023-06-05T11:02:07.633Z,4.75
2023-06-05T11:04:52.171Z,5.15
2023-06-05T11:07:23.759Z,7.90
2023-06-05T11:10:09.301Z,8.60
2023-06-05T11:12:36.176Z,8.05
2023-06-05T11:15:04.472Z,7.40
2023-06-05T11:17:33.156Z,7.80
2023-06-05T11:20:01.813Z,6.55
2023-06-05T11:22:28.727Z,6.22
2023-06-05T11:25:25.795Z,6.05
2023-06-05T11:28:05.277Z,6.32
2023-06-05T11:30:44.045Z,5.43
2023-06-05T11:33:16.876Z,5.80
2023-06-05T11:35:46.940Z,5.40
2023-06-05T11:38:22.068Z,5.65
2023-06-05T11:40:50.338Z,4.30
2023-06-05T11:43:17.231Z,4.88
2023-06-05T11:45:52.202Z,4.45
2023-06-05T11:48:19.184Z,4.35
2023-06-05T11:51:00.890Z,4.05
2023-06-05T11:53:28.790Z,4.22
2023-06-05T11:56:06.110Z,3.30
2023-06-05T11:58:38.719Z,3.47
2023-06-05T12:01:19.385Z,3.78
2023-06-05T12:03:47.959Z,3.10
2023-06-05T12:06:17.247Z,3.38
2023-06-05T12:08:44.525Z,3.75
2023-06-05T12:11:28.431Z,2.58
2023-06-05T12:13:59.008Z,2.50
2023-06-05T12:16:36.892Z,2.72
2023-06-05T12:19:16.290Z,2.50
2023-06-05T12:21:44.898Z,2.20
2023-06-05T12:24:12.844Z,2.00
2023-06-05T12:27:15.406Z,2.05
2023-06-05T12:29:57.893Z,2.45
2023-06-05T12:32:26.542Z,2.95
2023-06-05T12:35:01.125Z,1.50
2023-06-05T12:37:31.300Z,1.70
2023-06-05T12:40:01.630Z,2.22
2023-06-05T12:42:29.293Z,2.15
2023-06-05T12:44:56.431Z,1.73
2023-06-05T12:47:23.545Z,2.22
2023-06-05T12:49:50.882Z,1.80
2023-06-05T12:52:17.918Z,1.73
2023-06-05T12:54:44.831Z,1.17
2023-06-05T12:57:13.354Z,1.20
2023-06-05T12:59:41.061Z,1.50
2023-06-05T13:02:09.096Z,1.40
2023-06-05T13:04:36.471Z,1.83
2023-06-05T13:07:04.257Z,1.58
2023-06-05T13:09:31.572Z,1.60
2023-06-05T13:12:00.807Z,1.40
2023-06-05T13:14:27.939Z,1.17
2023-06-05T13:16:55.536Z,1.60
2023-06-05T13:19:22.395Z,1.80
2023-06-05T13:21:49.534Z,1.50
2023-06-05T13:24:16.595Z,1.52
2023-06-05T13:26:44.300Z,1.60
2023-06-05T13:29:12.048Z,1.42
2023-06-05T13:31:38.971Z,1.40
2023-06-05T13:34:06.822Z,1.83
2023-06-05T13:36:34.704Z,1.40
2023-06-05T13:39:01.681Z,1.60
2023-06-05T13:41:28.731Z,1.65
2023-06-05T13:43:59.144Z,1.60
2023-06-05T13:46:27.154Z,1.63
2023-06-05T13:48:54.628Z,1.63
2023-06-05T13:51:21.666Z,1.83
2023-06-05T13:53:48.406Z,1.90
2023-06-05T13:56:15.197Z,1.73
2023-06-05T13:58:42.026Z,2.28
2023-06-05T14:01:08.850Z,1.90
2023-06-05T14:03:35.989Z,1.98
2023-06-05T14:06:02.913Z,1.90
2023-06-05T14:08:29.718Z,1.77
2023-06-05T14:10:56.501Z,2.30
2023-06-05T14:13:23.534Z,1.88
2023-06-05T14:15:50.410Z,1.90
2023-06-05T14:18:17.553Z,2.00
2023-06-05T14:20:44.384Z,1.88
2023-06-05T14:23:11.942Z,1.98
2023-06-05T14:25:38.751Z,1.90
2023-06-05T14:28:07.356Z,2.13
2023-06-05T14:30:34.312Z,2.22
2023-06-05T14:33:01.288Z,2.03
2023-06-05T14:35:28.837Z,2.13
2023-06-05T14:37:55.627Z,2.10
2023-06-05T14:40:22.393Z,1.90
2023-06-05T14:42:51.092Z,3.20
2023-06-05T14:45:17.882Z,2.58
2023-06-05T14:47:46.151Z,2.40
2023-06-05T14:50:12.991Z,1.90
2023-06-05T14:52:39.758Z,2.00
2023-06-05T14:55:07.084Z,2.60
2023-06-05T14:57:35.261Z,2.22
2023-06-05T15:00:05.762Z,2.13
2023-06-05T15:02:32.915Z,2.53
2023-06-05T15:05:00.436Z,2.97
2023-06-05T15:07:39.447Z,2.20
2023-06-05T15:10:09.515Z,3.00
2023-06-05T15:12:36.986Z,3.38
2023-06-05T15:15:19.095Z,2.58
2023-06-05T15:17:46.638Z,2.50
2023-06-05T15:20:13.622Z,2.63
2023-06-05T15:22:40.502Z,2.33
2023-06-05T15:25:07.837Z,2.60
2023-06-05T15:27:35.995Z,3.08
2023-06-05T15:30:03.292Z,3.50
2023-06-05T15:32:30.269Z,2.70
2023-06-05T15:34:57.244Z,2.63
2023-06-05T15:37:27.149Z,2.42
2023-06-05T15:39:54.226Z,1.92
2023-06-05T15:42:32.913Z,2.10
2023-06-05T15:45:14.115Z,2.47
2023-06-05T15:47:41.412Z,2.38
2023-06-05T15:50:09.486Z,1.90
2023-06-05T15:52:37.815Z,1.85
2023-06-05T15:55:05.029Z,2.08
2023-06-05T15:57:31.877Z,2.45
2023-06-05T15:59:58.638Z,2.58
2023-06-05T16:02:25.579Z,2.30
2023-06-05T16:04:53.239Z,2.38
2023-06-05T16:07:20.396Z,2.72
2023-06-05T16:09:47.455Z,1.80
2023-06-05T16:12:14.198Z,2.00
2023-06-05T16:14:41.053Z,1.63
2023-06-05T16:17:07.815Z,2.17
2023-06-05T16:19:34.560Z,2.00
2023-06-05T16:22:01.612Z,1.73
2023-06-05T16:24:28.424Z,2.20
2023-06-05T16:26:55.224Z,2.78
2023-06-05T16:29:22.354Z,2.60
2023-06-05T16:31:49.366Z,2.42
2023-06-05T16:34:16.271Z,2.15
2023-06-05T16:36:43.602Z,2.00
2023-06-05T16:39:15.579Z,2.38
2023-06-05T16:41:43.092Z,3.17
2023-06-05T16:44:14.148Z,2.60
2023-06-05T16:46:44.401Z,2.60
2023-06-05T16:49:12.830Z,3.50
2023-06-05T16:51:39.737Z,3.05
2023-06-05T16:54:07.545Z,3.83
2023-06-05T16:56:34.615Z,3.42
2023-06-05T16:59:01.452Z,3.63
2023-06-05T17:01:28.181Z,3.72
2023-06-05T17:03:55.649Z,3.47
2023-06-05T17:06:23.460Z,3.40
2023-06-05T17:08:50.834Z,3.67
2023-06-05T17:11:17.959Z,3.75
2023-06-05T17:13:44.756Z,3.97
2023-06-05T17:16:11.706Z,3.42
2023-06-05T17:18:38.478Z,3.58
2023-06-05T17:21:05.483Z,3.20
2023-06-05T17:23:32.357Z,3.25
2023-06-05T17:25:59.079Z,3.20
2023-06-05T17:28:26.151Z,2.55
2023-06-05T17:30:53.004Z,2.67
2023-06-05T17:33:23.125Z,3.20
2023-06-05T17:35:51.389Z,2.70
2023-06-05T17:38:20.352Z,3.42
2023-06-05T17:40:47.357Z,2.95
2023-06-05T17:43:14.489Z,3.30
2023-06-05T17:45:41.641Z,3.58
2023-06-05T17:48:10.629Z,3.25
2023-06-05T17:50:37.687Z,3.20
2023-06-05T17:53:05.385Z,3.40
2023-06-05T17:55:32.186Z,3.80
2023-06-05T17:57:58.978Z,3.70
2023-06-05T18:00:26.416Z,4.20
2023-06-05T18:02:53.728Z,3.25
2023-06-05T18:05:21.371Z,3.50
2023-06-05T18:07:48.350Z,3.67
2023-06-05T18:10:15.053Z,3.38
2023-06-05T18:12:42.771Z,3.20
2023-06-05T18:15:09.895Z,3.75
2023-06-05T18:17:36.620Z,3.22
2023-06-05T18:20:05.352Z,3.67
2023-06-05T18:22:32.568Z,3.03
2023-06-05T18:24:59.431Z,3.45
2023-06-05T18:27:26.286Z,3.60
2023-06-05T18:29:53.054Z,4.50
2023-06-05T18:32:20.389Z,3.83
2023-06-05T18:34:47.228Z,3.47
2023-06-05T18:37:14.078Z,3.33
2023-06-05T18:39:40.795Z,2.88
2023-06-05T18:42:07.828Z,3.00
2023-06-05T18:44:34.536Z,2.70
2023-06-05T18:47:01.368Z,3.13
2023-06-05T18:49:28.173Z,3.05
2023-06-05T18:51:55.501Z,2.30
2023-06-05T18:54:24.277Z,2.67
2023-06-05T18:56:51.477Z,2.58
2023-06-05T18:59:18.552Z,2.35
2023-06-05T19:01:45.453Z,2.78
2023-06-05T19:04:12.673Z,2.40
2023-06-05T19:06:39.488Z,2.70
2023-06-05T19:09:06.730Z,2.53
2023-06-05T19:11:35.076Z,2.55
2023-06-05T19:14:02.138Z,3.00
2023-06-05T19:16:29.016Z,2.70
2023-06-05T19:18:55.853Z,3.25
2023-06-05T19:21:22.592Z,2.88
2023-06-05T19:23:49.387Z,2.97
2023-06-05T19:26:16.230Z,3.47
2023-06-05T19:28:43.044Z,3.08
2023-06-05T19:31:10.109Z,2.90
2023-06-05T19:33:38.153Z,3.17
2023-06-05T19:36:05.667Z,3.20
2023-06-05T19:38:32.466Z,3.28
2023-06-05T19:41:00.325Z,3.80
2023-06-05T19:43:27.196Z,3.83
2023-06-05T19:45:54.609Z,3.38
2023-06-05T19:48:24.748Z,3.67
2023-06-05T19:50:51.643Z,3.55
2023-06-05T19:53:18.955Z,3.95
2023-06-05T19:55:45.976Z,4.25
2023-06-05T19:58:12.705Z,3.90
2023-06-05T20:00:39.532Z,3.60
2023-06-05T20:03:06.501Z,4.57
2023-06-05T20:05:33.469Z,4.03
2023-06-05T20:08:00.227Z,4.13
2023-06-05T20:10:27.212Z,4.28
2023-06-05T20:12:54.044Z,4.30
2023-06-05T20:15:20.989Z,4.70
2023-06-05T20:17:47.891Z,5.00
2023-06-05T20:20:15.396Z,4.90
2023-06-05T20:22:42.249Z,5.68
2023-06-05T20:25:09.693Z,5.07
2023-06-05T20:27:38.397Z,5.10
2023-06-05T20:30:07.042Z,5.43
2023-06-05T20:32:33.986Z,5.38
2023-06-05T20:35:00.863Z,5.95
2023-06-05T20:37:31.407Z,5.38
2023-06-05T20:40:00.350Z,5.47
2023-06-05T20:42:30.909Z,5.65
2023-06-05T20:44:58.048Z,6.07
2023-06-05T20:47:25.457Z,6.18
2023-06-05T20:49:52.606Z,4.90
2023-06-05T20:52:21.988Z,5.85
2023-06-05T20:54:48.844Z,6.07
2023-06-05T20:57:16.930Z,6.22
2023-06-05T20:59:44.501Z,5.65
2023-06-05T21:02:12.247Z,6.28
2023-06-05T21:04:45.898Z,6.13
2023-06-05T21:07:13.059Z,5.88
2023-06-05T21:09:41.309Z,5.63
2023-06-05T21:12:08.692Z,6.32
2023-06-05T21:14:38.560Z,6.15
2023-06-05T21:17:07.152Z,6.43
2023-06-05T21:19:33.993Z,6.13
2023-06-05T21:22:02.480Z,6.47
2023-06-05T21:24:29.290Z,6.38
2023-06-05T21:26:56.558Z,6.35
2023-06-05T21:29:24.037Z,5.95
2023-06-05T21:31:51.176Z,6.57
2023-06-05T21:34:18.661Z,6.60
2023-06-05T21:36:45.920Z,6.82
2023-06-05T21:39:14.179Z,6.85
2023-06-05T21:41:41.655Z,6.93
2023-06-05T21:44:08.400Z,6.90
2023-06-05T21:46:35.550Z,7.35
2023-06-05T21:49:02.462Z,7.05
2023-06-05T21:51:29.263Z,7.40
2023-06-05T21:53:56.315Z,7.63
2023-06-05T21:56:23.099Z,7.47
2023-06-05T21:58:49.848Z,7.47
2023-06-05T22:01:16.697Z,6.95
2023-06-05T22:03:43.623Z,7.75
2023-06-05T22:06:10.983Z,7.68
2023-06-05T22:08:38.165Z,7.53
2023-06-05T22:11:05.210Z,7.97
2023-06-05T22:13:32.009Z,7.80
2023-06-05T22:16:03.364Z,8.07
2023-06-05T22:18:30.709Z,7.93
2023-06-05T22:20:57.558Z,7.30
2023-06-05T22:23:24.873Z,7.57
2023-06-05T22:25:53.365Z,7.25
2023-06-05T22:28:20.785Z,8.00
2023-06-05T22:30:48.150Z,8.23
2023-06-05T22:33:15.707Z,8.25
2023-06-05T22:35:43.685Z,7.50
2023-06-05T22:38:11.403Z,7.90
2023-06-05T22:40:38.360Z,8.38
2023-06-05T22:43:05.098Z,8.63
2023-06-05T22:45:32.373Z,8.63
2023-06-05T22:47:59.143Z,8.88
2023-06-05T22:50:25.928Z,9.15
2023-06-05T22:52:53.706Z,8.25
2023-06-05T22:55:20.639Z,9.50
2023-06-05T22:57:47.530Z,8.27
2023-06-05T23:00:14.744Z,8.13
2023-06-05T23:02:43.124Z,8.82
2023-06-05T23:05:11.325Z,7.90
2023-06-05T23:07:39.738Z,8.15
2023-06-05T23:10:07.098Z,8.13
2023-06-05T23:12:34.187Z,8.25
2023-06-05T23:15:00.986Z,8.52
2023-06-05T23:17:27.818Z,7.97
2023-06-05T23:19:54.586Z,8.48
2023-06-05T23:22:21.542Z,8.88
2023-06-05T23:24:48.273Z,9.60
2023-06-05T23:27:15.455Z,9.25
2023-06-05T23:29:42.479Z,10.27
2023-06-05T23:32:09.672Z,10.75
2023-06-05T23:34:36.479Z,11.35
2023-06-05T23:37:03.259Z,11.60
2023-06-05T23:39:30.240Z,11.98
2023-06-05T23:41:57.060Z,13.13
2023-06-05T23:44:23.929Z,12.93
2023-06-05T23:46:51.225Z,13.52
2023-06-05T23:49:18.105Z,13.95
2023-06-05T23:51:45.142Z,12.82
2023-06-05T23:54:12.171Z,12.80
2023-06-05T23:56:40.981Z,13.20
2023-06-05T23:59:08.433Z,12.48
